createdAt,value
2018-02-01T00:02:14.456Z,33.07
2018-02-01T00:04:43.140Z,32.73
2018-02-01T00:07:11.826Z,30.17
2018-02-01T00:09:40.412Z,27.90
2018-02-01T00:12:09.140Z,39.60
2018-02-01T00:14:38.596Z,37.47
2018-02-01T00:17:07.226Z,22.97
2018-02-01T00:19:36.743Z,23.33
2018-02-01T00:22:06.190Z,23.47
2018-02-01T00:24:34.876Z,24.40
2018-02-01T00:27:03.821Z,22.10
2018-02-01T00:29:33.278Z,21.13
2018-02-01T00:32:01.964Z,21.03
2018-02-01T00:34:30.896Z,21.27
2018-02-01T00:37:00.367Z,20.13
2018-02-01T00:39:29.142Z,19.87
2018-02-01T00:41:58.102Z,18.93
2018-02-01T00:44:26.819Z,20.87
2018-02-01T00:46:55.506Z,21.00
2018-02-01T00:49:24.402Z,19.23
2018-02-01T00:51:53.023Z,21.60
2018-02-01T00:54:22.485Z,18.37
2018-02-01T00:56:51.459Z,19.50
2018-02-01T00:59:20.164Z,19.37
2018-02-01T01:01:48.849Z,19.60
2018-02-01T01:04:17.536Z,17.77
2018-02-01T01:06:46.221Z,14.50
2018-02-01T01:09:14.907Z,14.90
2018-02-01T01:11:43.902Z,16.60
2018-02-01T01:14:12.533Z,15.50
2018-02-01T01:16:41.888Z,16.20
2018-02-01T01:19:10.989Z,14.43
2018-02-01T01:21:39.607Z,15.87
2018-02-01T01:24:09.073Z,15.07
2018-02-01T01:26:37.858Z,16.30
2018-02-01T01:29:06.544Z,18.83
2018-02-01T01:31:35.132Z,16.03
2018-02-01T01:34:04.098Z,16.13
2018-02-01T01:36:32.810Z,17.77
2018-02-01T01:39:01.434Z,16.77
2018-02-01T01:41:30.900Z,15.07
2018-02-01T01:43:59.484Z,16.03
2018-02-01T01:46:28.112Z,15.90
2018-02-01T01:48:57.577Z,16.93
2018-02-01T01:51:26.252Z,16.10
2018-02-01T01:53:54.938Z,16.10
2018-02-01T01:56:23.734Z,21.20
2018-02-01T01:58:52.372Z,21.33
2018-02-01T02:01:21.818Z,20.00
2018-02-01T02:03:50.786Z,19.33
2018-02-01T02:06:19.498Z,19.50
2018-02-01T02:08:48.121Z,18.97
2018-02-01T02:11:17.588Z,17.90
2018-02-01T02:13:46.170Z,16.63
2018-02-01T02:16:14.799Z,13.57
2018-02-01T02:18:44.517Z,14.77
2018-02-01T02:21:13.247Z,15.00
2018-02-01T02:23:41.879Z,13.50
2018-02-01T02:26:11.395Z,14.90
2018-02-01T02:28:40.840Z,14.43
2018-02-01T02:31:09.428Z,15.13
2018-02-01T02:33:38.124Z,14.43
2018-02-01T02:36:06.899Z,15.67
2018-02-01T02:38:35.484Z,15.77
2018-02-01T02:41:04.177Z,17.23
2018-02-01T02:43:32.821Z,14.83
2018-02-01T02:46:01.544Z,15.40
2018-02-01T02:48:30.330Z,15.47
2018-02-01T02:50:59.014Z,15.27
2018-02-01T02:53:27.702Z,15.93
2018-02-01T02:55:56.495Z,13.30
2018-02-01T02:58:25.180Z,14.63
2018-02-01T03:00:53.872Z,13.80
2018-02-01T03:03:22.711Z,13.70
2018-02-01T03:05:51.436Z,14.80
2018-02-01T03:08:20.097Z,13.77
2018-02-01T03:10:49.064Z,14.37
2018-02-01T03:13:18.524Z,12.37
2018-02-01T03:15:47.146Z,13.13
2018-02-01T03:18:16.918Z,14.13
2018-02-01T03:20:45.560Z,14.90
2018-02-01T03:23:14.289Z,15.47
2018-02-01T03:25:43.020Z,14.97
2018-02-01T03:28:12.483Z,15.60
2018-02-01T03:30:41.103Z,14.03
2018-02-01T03:33:10.823Z,13.77
2018-02-01T03:35:40.274Z,13.17
2018-02-01T03:38:09.069Z,13.97
2018-02-01T03:40:37.802Z,12.07
2018-02-01T03:43:07.253Z,12.73
2018-02-01T03:45:35.887Z,14.37
2018-02-01T03:48:05.354Z,12.37
2018-02-01T03:50:34.018Z,11.40
2018-02-01T03:53:02.685Z,12.77
2018-02-01T03:55:31.604Z,12.50
2018-02-01T03:58:00.289Z,12.43
2018-02-01T04:00:28.942Z,13.33
2018-02-01T04:02:57.667Z,12.53
2018-02-01T04:05:26.348Z,12.33
2018-02-01T04:07:55.042Z,12.57
2018-02-01T04:10:24.136Z,10.93
2018-02-01T04:12:52.822Z,17.83
2018-02-01T04:15:21.502Z,19.40
2018-02-01T04:17:50.600Z,21.40
2018-02-01T04:20:19.285Z,19.27
2018-02-01T04:22:47.972Z,16.50
2018-02-01T04:25:16.865Z,20.23
2018-02-01T04:27:45.486Z,24.80
2018-02-01T04:30:14.846Z,25.00
2018-02-01T04:32:43.636Z,22.57
2018-02-01T04:35:13.087Z,24.53
2018-02-01T04:37:42.544Z,22.60
2018-02-01T04:40:11.475Z,21.67
2018-02-01T04:42:40.942Z,16.97
2018-02-01T04:45:09.682Z,13.23
2018-02-01T04:47:39.438Z,14.87
2018-02-01T04:50:08.125Z,31.00
2018-02-01T04:52:36.909Z,29.50
2018-02-01T04:55:05.603Z,30.33
2018-02-01T04:57:34.181Z,25.03
2018-02-01T05:00:02.966Z,21.67
2018-02-01T05:02:32.109Z,18.83
2018-02-01T05:05:01.567Z,15.00
2018-02-01T05:07:30.252Z,14.00
2018-02-01T05:09:59.238Z,17.03
2018-02-01T05:12:27.931Z,16.63
2018-02-01T05:14:56.573Z,18.87
2018-02-01T05:17:25.303Z,17.77
2018-02-01T05:19:53.933Z,16.80
2018-02-01T05:22:23.399Z,14.40
2018-02-01T05:24:52.184Z,12.07
2018-02-01T05:27:20.870Z,13.40
2018-02-01T05:29:49.555Z,9.73
2018-02-01T05:32:18.450Z,10.50
2018-02-01T05:34:47.135Z,10.47
2018-02-01T05:37:15.756Z,10.57
2018-02-01T05:39:45.225Z,9.93
2018-02-01T05:42:13.967Z,12.43
2018-02-01T05:44:42.635Z,23.10
2018-02-01T05:47:12.153Z,28.30
2018-02-01T05:49:41.500Z,33.83
2018-02-01T05:52:10.052Z,40.20
2018-02-01T05:54:38.970Z,42.50
2018-02-01T05:57:07.624Z,51.40
2018-02-01T05:59:36.292Z,40.47
2018-02-01T06:02:05.949Z,48.87
2018-02-01T06:04:34.601Z,61.20
2018-02-01T06:07:03.322Z,54.03
2018-02-01T06:09:32.116Z,57.27
2018-02-01T06:12:00.805Z,49.23
2018-02-01T06:14:29.494Z,41.63
2018-02-01T06:16:58.340Z,31.77
2018-02-01T06:19:26.960Z,31.30
2018-02-01T06:21:55.743Z,33.47
2018-02-01T06:24:24.593Z,32.83
2018-02-01T06:26:53.323Z,39.50
2018-02-01T06:29:22.009Z,56.53
2018-02-01T06:31:50.971Z,34.77
2018-02-01T06:34:19.688Z,30.37
2018-02-01T06:36:48.406Z,41.60
2018-02-01T06:39:17.975Z,32.67
2018-02-01T06:41:46.666Z,37.80
2018-02-01T06:44:15.353Z,36.17
2018-02-01T06:46:43.954Z,35.87
2018-02-01T06:49:12.527Z,29.33
2018-02-01T06:51:41.098Z,44.83
2018-02-01T06:54:09.808Z,53.33
2018-02-01T06:56:38.685Z,49.20
2018-02-01T06:59:07.370Z,38.03
2018-02-01T07:01:40.247Z,50.63
2018-02-01T07:04:09.349Z,36.93
2018-02-01T07:06:37.991Z,36.43
2018-02-01T07:09:06.720Z,32.70
2018-02-01T07:11:35.303Z,30.57
2018-02-01T07:14:03.885Z,29.10
2018-02-01T07:16:32.816Z,37.60
2018-02-01T07:19:02.277Z,26.30
2018-02-01T07:21:30.836Z,23.37
2018-02-01T07:24:00.054Z,25.13
2018-02-01T07:26:28.733Z,28.03
2018-02-01T07:28:57.326Z,27.07
2018-02-01T07:31:26.019Z,28.80
2018-02-01T07:33:54.691Z,27.47
2018-02-01T07:36:23.383Z,29.33
2018-02-01T07:38:53.260Z,28.00
2018-02-01T07:41:22.719Z,26.63
2018-02-01T07:43:51.441Z,20.93
2018-02-01T07:46:20.228Z,23.57
2018-02-01T07:48:49.026Z,20.00
2018-02-01T07:51:17.708Z,20.43
2018-02-01T07:53:46.458Z,18.00
2018-02-01T07:56:15.179Z,18.00
2018-02-01T07:58:43.843Z,16.80
2018-02-01T08:01:12.811Z,18.27
2018-02-01T08:03:41.544Z,16.10
2018-02-01T08:06:10.132Z,14.93
2018-02-01T08:08:38.864Z,16.80
2018-02-01T08:11:08.323Z,17.60
2018-02-01T08:13:36.899Z,36.53
2018-02-01T08:16:05.842Z,20.57
2018-02-01T08:18:35.302Z,16.67
2018-02-01T08:21:04.094Z,15.97
2018-02-01T08:23:33.694Z,14.90
2018-02-01T08:26:02.381Z,13.83
2018-02-01T08:28:30.960Z,12.63
2018-02-01T08:30:59.608Z,14.00
2018-02-01T08:33:28.189Z,14.10
2018-02-01T08:35:56.741Z,16.33
2018-02-01T08:38:25.344Z,14.57
2018-02-01T08:40:54.702Z,15.93
2018-02-01T08:43:23.284Z,13.83
2018-02-01T08:45:52.063Z,13.33
2018-02-01T08:48:20.624Z,13.53
2018-02-01T08:50:49.179Z,13.07
2018-02-01T08:53:18.640Z,13.60
2018-02-01T08:55:47.189Z,14.93
2018-02-01T08:58:15.789Z,14.93
2018-02-01T09:00:44.406Z,15.03
2018-02-01T09:03:13.179Z,16.90
2018-02-01T09:05:41.865Z,15.63
2018-02-01T09:08:10.858Z,14.37
2018-02-01T09:10:39.408Z,13.30
2018-02-01T09:13:07.972Z,14.80
2018-02-01T09:15:37.627Z,12.53
2018-02-01T09:18:06.185Z,12.60
2018-02-01T09:20:34.739Z,13.23
2018-02-01T09:23:04.147Z,15.37
2018-02-01T09:25:32.728Z,14.67
2018-02-01T09:28:01.280Z,13.63
2018-02-01T09:30:30.196Z,13.80
2018-02-01T09:32:59.524Z,15.13
2018-02-01T09:35:28.085Z,13.77
2018-02-01T09:37:57.644Z,15.80
2018-02-01T09:40:26.206Z,14.37
2018-02-01T09:42:54.763Z,15.70
2018-02-01T09:45:23.491Z,15.10
2018-02-01T09:47:52.056Z,16.57
2018-02-01T09:50:20.622Z,14.07
2018-02-01T09:52:49.241Z,15.87
2018-02-01T09:55:18.618Z,13.77
2018-02-01T09:57:47.224Z,13.60
2018-02-01T10:00:16.020Z,13.50
2018-02-01T10:02:44.580Z,12.23
2018-02-01T10:05:13.144Z,12.67
2018-02-01T10:07:42.512Z,13.03
2018-02-01T10:10:11.070Z,15.47
2018-02-01T10:12:39.629Z,15.50
2018-02-01T10:15:08.547Z,15.87
2018-02-01T10:17:37.146Z,15.77
2018-02-01T10:20:05.704Z,15.97
2018-02-01T10:22:34.400Z,15.63
2018-02-01T10:25:02.975Z,16.20
2018-02-01T10:27:31.525Z,15.27
2018-02-01T10:30:00.452Z,14.13
2018-02-01T10:32:29.061Z,14.83
2018-02-01T10:34:58.388Z,13.70
2018-02-01T10:37:26.995Z,17.57
2018-02-01T10:39:55.555Z,17.20
2018-02-01T10:42:24.936Z,16.60
2018-02-01T10:44:54.507Z,17.73
2018-02-01T10:47:23.082Z,17.43
2018-02-01T10:49:51.651Z,16.87
2018-02-01T10:52:20.470Z,16.40
2018-02-01T10:54:49.048Z,17.47
2018-02-01T10:57:18.368Z,19.40
2018-02-01T10:59:46.977Z,18.10
2018-02-01T11:02:16.381Z,21.43
2018-02-01T11:04:45.703Z,19.53
2018-02-01T11:07:14.318Z,26.03
2018-02-01T11:09:42.880Z,21.40
2018-02-01T11:12:11.443Z,19.00
2018-02-01T11:14:40.080Z,18.83
2018-02-01T11:17:08.648Z,19.10
2018-02-01T11:19:37.296Z,20.10
2018-02-01T11:22:05.996Z,20.40
2018-02-01T11:24:34.560Z,23.00
2018-02-01T11:27:03.115Z,19.37
2018-02-01T11:29:31.720Z,22.97
2018-02-01T11:32:01.041Z,24.90
2018-02-01T11:34:30.371Z,34.43
2018-02-01T11:36:58.999Z,22.80
2018-02-01T11:39:28.320Z,28.23
2018-02-01T11:41:56.882Z,24.27
2018-02-01T11:44:26.453Z,24.93
2018-02-01T11:46:55.028Z,20.50
2018-02-01T11:49:23.602Z,19.47
2018-02-01T11:51:52.200Z,20.17
2018-02-01T11:54:20.760Z,19.97
2018-02-01T11:56:49.320Z,18.93
2018-02-01T11:59:17.948Z,20.13
2018-02-01T12:01:46.540Z,18.20
2018-02-01T12:04:16.676Z,18.37
2018-02-01T12:06:45.535Z,19.90
2018-02-01T12:09:14.093Z,37.17
2018-02-01T12:11:42.669Z,21.83
2018-02-01T12:14:11.497Z,36.53
2018-02-01T12:16:40.054Z,21.30
2018-02-01T12:19:08.621Z,19.43
2018-02-01T12:21:37.241Z,17.73
2018-02-01T12:24:05.801Z,18.10
2018-02-01T12:26:34.375Z,20.60
2018-02-01T12:29:02.998Z,18.43
2018-02-01T12:31:31.591Z,18.73
2018-02-01T12:34:00.157Z,17.20
2018-02-01T12:36:28.764Z,18.10
2018-02-01T12:38:57.324Z,20.00
2018-02-01T12:41:25.876Z,22.97
2018-02-01T12:43:54.912Z,21.60
2018-02-01T12:46:23.531Z,23.50
2018-02-01T12:48:52.855Z,23.93
2018-02-01T12:51:21.678Z,20.77
2018-02-01T12:53:50.232Z,21.80
2018-02-01T12:56:18.793Z,19.40
2018-02-01T12:58:48.352Z,20.33
2018-02-01T13:01:16.917Z,21.03
2018-02-01T13:03:45.488Z,21.37
2018-02-01T13:06:14.305Z,18.40
2018-02-01T13:08:42.872Z,17.23
2018-02-01T13:11:11.440Z,17.57
2018-02-01T13:13:40.158Z,18.60
2018-02-01T13:16:08.717Z,18.17
2018-02-01T13:18:37.276Z,16.97
2018-02-01T13:21:05.895Z,17.37
2018-02-01T13:23:34.449Z,16.03
2018-02-01T13:26:03.004Z,17.30
2018-02-01T13:28:32.376Z,17.40
2018-02-01T13:31:00.966Z,16.87
2018-02-01T13:33:29.545Z,16.53
2018-02-01T13:35:58.431Z,17.37
2018-02-01T13:38:27.756Z,16.67
2018-02-01T13:40:56.316Z,19.40
2018-02-01T13:43:25.097Z,17.93
2018-02-01T13:45:53.672Z,18.37
2018-02-01T13:48:22.230Z,21.67
2018-02-01T13:50:50.832Z,20.40
2018-02-01T13:53:19.400Z,20.37
2018-02-01T13:55:47.959Z,22.33
2018-02-01T13:58:17.332Z,24.00
2018-02-01T14:00:45.906Z,20.53
2018-02-01T14:03:14.472Z,26.80
2018-02-01T14:05:43.367Z,21.17
2018-02-01T14:08:11.953Z,19.67
2018-02-01T14:10:40.505Z,21.93
2018-02-01T14:13:09.129Z,23.57
2018-02-01T14:15:37.688Z,21.00
2018-02-01T14:18:06.253Z,20.77
2018-02-01T14:20:34.884Z,20.07
2018-02-01T14:23:03.448Z,21.43
2018-02-01T14:25:32.036Z,20.70
2018-02-01T14:28:01.069Z,21.07
2018-02-01T14:30:30.405Z,22.93
2018-02-01T14:32:58.964Z,43.47
2018-02-01T14:35:28.725Z,24.77
2018-02-01T14:37:57.282Z,24.90
2018-02-01T14:40:25.847Z,23.30
2018-02-01T14:42:54.464Z,25.00
2018-02-01T14:45:23.024Z,32.27
2018-02-01T14:47:51.585Z,33.17
2018-02-01T14:50:20.959Z,35.80
2018-02-01T14:52:49.533Z,39.27
2018-02-01T14:55:18.084Z,45.07
2018-02-01T14:57:47.006Z,34.27
2018-02-01T15:00:15.581Z,35.77
2018-02-01T15:02:44.158Z,58.87
2018-02-01T15:05:13.165Z,54.63
2018-02-01T15:07:41.738Z,40.30
2018-02-01T15:10:10.296Z,42.80
2018-02-01T15:12:38.930Z,43.03
2018-02-01T15:15:07.493Z,39.90
2018-02-01T15:17:36.052Z,36.53
2018-02-01T15:20:04.661Z,39.30
2018-02-01T15:22:33.212Z,48.10
2018-02-01T15:25:01.782Z,53.50
2018-02-01T15:27:31.151Z,54.40
2018-02-01T15:29:59.712Z,59.93
2018-02-01T15:32:28.272Z,59.07
2018-02-01T15:34:56.882Z,81.67
2018-02-01T15:37:25.450Z,87.07
2018-02-01T15:39:54.776Z,79.40
2018-02-01T15:42:23.557Z,102.87
2018-02-01T15:44:52.121Z,99.50
2018-02-01T15:47:20.684Z,86.43
2018-02-01T15:49:49.614Z,95.33
2018-02-01T15:52:18.184Z,96.27
2018-02-01T15:54:46.751Z,101.03
2018-02-01T15:57:15.569Z,100.00
2018-02-01T15:59:44.123Z,93.57
2018-02-01T16:02:12.707Z,100.93
2018-02-01T16:04:41.641Z,99.17
2018-02-01T16:07:10.206Z,100.37
2018-02-01T16:09:38.773Z,116.23
2018-02-01T16:12:07.377Z,120.90
2018-02-01T16:14:35.949Z,135.13
2018-02-01T16:17:05.273Z,135.47
2018-02-01T16:19:34.228Z,208.43
2018-02-01T16:22:02.877Z,193.53
2018-02-01T16:24:31.485Z,229.20
2018-02-01T16:27:00.294Z,209.37
2018-02-01T16:29:28.897Z,281.77
2018-02-01T16:31:57.467Z,264.20
2018-02-01T16:34:28.709Z,202.50
2018-02-01T16:36:57.306Z,183.43
2018-02-01T16:39:25.879Z,199.83
2018-02-01T16:41:54.875Z,249.70
2018-02-01T16:44:23.428Z,289.90
2018-02-01T16:46:51.988Z,316.80
2018-02-01T16:49:20.826Z,328.97
2018-02-01T16:51:49.392Z,330.80
2018-02-01T16:54:17.951Z,361.50
2018-02-01T16:56:46.556Z,378.53
2018-02-01T16:59:15.111Z,376.50
2018-02-01T17:01:43.669Z,260.40
2018-02-01T17:04:12.281Z,275.87
2018-02-01T17:06:40.833Z,272.63
2018-02-01T17:09:10.324Z,343.70
2018-02-01T17:11:39.790Z,304.73
2018-02-01T17:14:08.370Z,314.80
2018-02-01T17:16:36.925Z,325.33
2018-02-01T17:19:05.533Z,330.63
2018-02-01T17:21:34.084Z,257.27
2018-02-01T17:24:02.642Z,200.83
2018-02-01T17:26:32.206Z,188.37
2018-02-01T17:29:00.750Z,232.50
2018-02-01T17:31:29.308Z,187.30
2018-02-01T17:33:58.832Z,123.13
2018-02-01T17:36:27.393Z,108.83
2018-02-01T17:38:55.940Z,99.83
2018-02-01T17:41:24.544Z,90.10
2018-02-01T17:43:53.104Z,107.97
2018-02-01T17:46:21.654Z,82.80
2018-02-01T17:48:50.253Z,89.50
2018-02-01T17:51:18.810Z,114.10
2018-02-01T17:53:47.496Z,127.47
2018-02-01T17:56:16.124Z,138.30
2018-02-01T17:58:44.685Z,156.47
2018-02-01T18:01:14.013Z,89.83
2018-02-01T18:03:42.708Z,75.03
2018-02-01T18:06:11.256Z,75.87
2018-02-01T18:08:39.805Z,89.87
2018-02-01T18:11:09.260Z,76.73
2018-02-01T18:13:37.813Z,69.43
2018-02-01T18:16:06.376Z,75.33
2018-02-01T18:18:36.182Z,79.20
2018-02-01T18:21:04.748Z,63.83
2018-02-01T18:23:33.689Z,51.67
2018-02-01T18:26:02.499Z,68.77
2018-02-01T18:28:31.049Z,36.97
2018-02-01T18:30:59.628Z,37.20
2018-02-01T18:33:28.452Z,37.67
2018-02-01T18:35:56.997Z,38.30
2018-02-01T18:38:25.550Z,31.90
2018-02-01T18:40:54.142Z,38.37
2018-02-01T18:43:22.684Z,63.30
2018-02-01T18:45:51.240Z,72.10
2018-02-01T18:48:19.844Z,91.77
2018-02-01T18:50:48.409Z,104.20
2018-02-01T18:53:16.985Z,89.03
2018-02-01T18:55:45.811Z,68.60
2018-02-01T18:58:14.364Z,54.57
2018-02-01T19:00:42.953Z,56.47
2018-02-01T19:03:11.565Z,52.10
2018-02-01T19:05:40.124Z,50.77
2018-02-01T19:08:08.689Z,55.20
2018-02-01T19:10:37.284Z,49.97
2018-02-01T19:13:05.848Z,48.17
2018-02-01T19:15:35.235Z,51.07
2018-02-01T19:18:04.744Z,51.10
2018-02-01T19:20:34.072Z,66.17
2018-02-01T19:23:02.619Z,60.47
2018-02-01T19:25:31.987Z,61.07
2018-02-01T19:28:01.521Z,76.93
2018-02-01T19:30:30.920Z,74.27
2018-02-01T19:32:59.524Z,64.10
2018-02-01T19:35:28.858Z,55.17
2018-02-01T19:37:57.465Z,46.90
2018-02-01T19:40:26.168Z,54.67
2018-02-01T19:42:54.737Z,49.20
2018-02-01T19:45:23.293Z,45.17
2018-02-01T19:47:52.315Z,46.10
2018-02-01T19:50:20.868Z,44.57
2018-02-01T19:52:49.426Z,34.47
2018-02-01T19:55:18.787Z,32.37
2018-02-01T19:57:47.809Z,33.10
2018-02-01T20:00:17.137Z,32.60
2018-02-01T20:02:45.736Z,33.47
2018-02-01T20:05:14.283Z,30.93
2018-02-01T20:07:42.848Z,34.47
2018-02-01T20:10:12.600Z,39.07
2018-02-01T20:12:41.146Z,40.77
2018-02-01T20:15:10.464Z,50.23
2018-02-01T20:17:39.117Z,63.07
2018-02-01T20:20:08.506Z,62.43
2018-02-01T20:22:37.079Z,78.43
2018-02-01T20:25:05.960Z,54.70
2018-02-01T20:27:34.520Z,75.57
2018-02-01T20:30:03.098Z,77.17
2018-02-01T20:32:31.907Z,77.87
2018-02-01T20:35:00.456Z,82.83
2018-02-01T20:37:29.000Z,39.07
2018-02-01T20:39:57.949Z,35.03
2018-02-01T20:42:26.496Z,33.07
2018-02-01T20:44:55.816Z,36.40
2018-02-01T20:47:24.412Z,39.07
2018-02-01T20:49:53.041Z,36.17
2018-02-01T20:52:21.616Z,34.83
2018-02-01T20:54:50.583Z,36.83
2018-02-01T20:57:19.196Z,67.30
2018-02-01T20:59:47.836Z,44.93
2018-02-01T21:02:16.548Z,44.30
2018-02-01T21:04:45.097Z,51.00
2018-02-01T21:07:13.704Z,47.50
2018-02-01T21:09:42.306Z,44.03
2018-02-01T21:12:10.885Z,48.67
2018-02-01T21:14:39.493Z,51.03
2018-02-01T21:17:08.356Z,50.57
2018-02-01T21:19:36.924Z,51.00
2018-02-01T21:22:05.508Z,65.43
2018-02-01T21:24:34.388Z,30.10
2018-02-01T21:27:03.044Z,21.87
2018-02-01T21:29:32.498Z,16.50
2018-02-01T21:32:01.205Z,15.93
2018-02-01T21:34:29.759Z,15.37
2018-02-01T21:36:58.309Z,17.07
2018-02-01T21:39:27.856Z,15.63
2018-02-01T21:41:56.408Z,15.13
2018-02-01T21:44:24.968Z,64.03
2018-02-01T21:46:54.364Z,31.10
2018-02-01T21:49:23.828Z,38.53
2018-02-01T21:51:53.179Z,44.60
2018-02-01T21:54:22.948Z,39.10
2018-02-01T21:56:51.512Z,60.97
2018-02-01T21:59:20.069Z,45.33
2018-02-01T22:01:48.664Z,39.13
2018-02-01T22:04:17.221Z,42.27
2018-02-01T22:06:46.844Z,42.87
2018-02-01T22:09:15.673Z,35.07
2018-02-01T22:11:44.224Z,30.73
2018-02-01T22:14:12.787Z,79.37
2018-02-01T22:16:42.152Z,42.50
2018-02-01T22:19:10.700Z,36.80
2018-02-01T22:21:39.252Z,34.63
2018-02-01T22:24:08.829Z,37.83
2018-02-01T22:26:37.396Z,42.97
2018-02-01T22:29:05.945Z,41.00
2018-02-01T22:31:34.549Z,39.93
2018-02-01T22:34:03.100Z,41.80
2018-02-01T22:36:32.412Z,50.50
2018-02-01T22:39:01.438Z,52.43
2018-02-01T22:41:29.988Z,74.97
2018-02-01T22:43:58.542Z,80.77
2018-02-01T22:46:27.947Z,97.20
2018-02-01T22:48:57.272Z,55.10
2018-02-01T22:51:25.824Z,42.10
2018-02-01T22:53:55.298Z,39.93
2018-02-01T22:56:23.864Z,36.10
2018-02-01T22:58:52.421Z,39.10
2018-02-01T23:01:21.049Z,53.17
2018-02-01T23:03:49.624Z,47.70
2018-02-01T23:06:18.180Z,48.13
2018-02-01T23:08:46.794Z,41.50
2018-02-01T23:11:16.168Z,36.90
2018-02-01T23:13:44.737Z,34.70
2018-02-01T23:16:14.097Z,32.70
2018-02-01T23:18:42.653Z,28.47
2018-02-01T23:21:11.204Z,24.07
2018-02-01T23:23:40.032Z,21.50
2018-02-01T23:26:08.582Z,21.90
2018-02-01T23:28:37.148Z,22.97
2018-02-01T23:31:06.806Z,21.87
2018-02-01T23:33:35.356Z,22.13
2018-02-01T23:36:03.903Z,20.77
2018-02-01T23:38:32.760Z,19.10
2018-02-01T23:41:01.304Z,20.43
2018-02-01T23:43:29.847Z,20.27
2018-02-01T23:45:58.528Z,20.47
2018-02-01T23:48:27.835Z,20.27
2018-02-01T23:50:56.393Z,20.73
2018-02-01T23:53:25.000Z,18.70
2018-02-01T23:55:53.561Z,17.17
2018-02-01T23:58:22.881Z,18.57
